Aérodrome :
LOGIN :

S'inscrire | Disclaimer

   EN    FR    IT 

 










Légende :    VFR   VFR Marginal   IFR   IFR Intensif   IFR Très Intensif
Visi : 
Plafond : 
>= 8 km
>= 3000ft
5 à 8 km
1000 à 3000 ft
1500m à 5 km
500 à 1000 ft
800 à 1500m
200 à 500 ft
< 800m
< 200 ft
Symboles :   Orages  Brouillard  Fortes neiges  Fortes précipitations  Vent > 20 kt
SIGMETs :   Divers  Orages  Givrage  Turbulence  Onde Orograph.  Cendres Volcan.







- Altitude de l'aérodrome : 79 ft
- Code IATA : NSY


LICZ - Sigonella (Mil) Catania

DERNIER METAR :
  • 181755Z 25010KT 9999 FEW070 05/M00 Q1022 RMK FEW VIS MIN 9999 WIND THR28 25010KT WIND THR10 25008KT A3020 BLU

METARs EXPIRÉS :
  • 181655Z 25007KT 9999 FEW060 06/M02 Q1022 RMK FEW VIS MIN 9999 WIND THR28 24008KT WIND THR10 23005KT A3018 BLU
  • 181555Z 30004KT 9999 FEW020 SCT060 10/M03 Q1021 RMK SCT VIS MIN 9999 WIND THR28 33002KT WIND THR10 29004KT A3017 BLU

TAF TAF LICZ
Valide du 18 à 18h jusqu'au 19 à 03h UTC


181700Z 1818/1903 26007KT 9999 FEW030 SCT080
Pas de NOTAMs connus pour ce terrain.



MET'MAP, la Météo Aéronautique d'un coup d'oeil ! - Copyright ORBIFLY Décembre 2007 - Disclaimer

ORBIFLY MET'MAP TEAM :

Programmation & Développement : Alexandra Zaïnal
Conception & Développement : Baudouin d'Aumeries
Co-Programmation & Développement : Marc-Olivier Méhu
Soutien technique & logistique : Manuel Goepfert

Contact : metmap@orbifly.com




SOURCES & CREDITS :

   NOAA